createdAt,value
2018-08-18T00:00:13.662Z,15.40
2018-08-18T00:02:42.166Z,15.30
2018-08-18T00:05:11.547Z,15.30
2018-08-18T00:07:40.047Z,15.30
2018-08-18T00:10:09.907Z,15.20
2018-08-18T00:12:38.635Z,15.20
2018-08-18T00:15:08.178Z,15.20
2018-08-18T00:17:37.614Z,15.00
2018-08-18T00:20:11.468Z,15.00
2018-08-18T00:22:39.890Z,15.00
2018-08-18T00:25:08.334Z,14.90
2018-08-18T00:27:36.723Z,14.90
2018-08-18T00:30:39.108Z,14.80
2018-08-18T00:33:07.522Z,14.90
2018-08-18T00:35:35.965Z,14.80
2018-08-18T00:38:04.339Z,14.90
2018-08-18T00:40:32.691Z,14.90
2018-08-18T00:43:01.151Z,14.80
2018-08-18T00:45:29.547Z,14.80
2018-08-18T00:47:57.983Z,14.70
2018-08-18T00:50:37.649Z,14.50
2018-08-18T00:53:07.753Z,14.40
2018-08-18T00:55:36.591Z,14.50
2018-08-18T00:58:05.788Z,14.50
2018-08-18T01:00:34.551Z,14.50
2018-08-18T01:03:03.030Z,14.60
2018-08-18T01:05:31.439Z,14.50
2018-08-18T01:07:59.945Z,14.50
2018-08-18T01:10:28.443Z,14.40
2018-08-18T01:12:56.890Z,14.30
2018-08-18T01:15:27.253Z,14.10
2018-08-18T01:17:56.458Z,14.10
2018-08-18T01:20:24.975Z,14.20
2018-08-18T01:23:00.922Z,14.20
2018-08-18T01:25:30.243Z,14.20
2018-08-18T01:27:59.583Z,14.10
2018-08-18T01:30:27.983Z,14.00
2018-08-18T01:32:56.834Z,14.00
2018-08-18T01:35:25.593Z,13.90
2018-08-18T01:37:53.950Z,13.90
2018-08-18T01:40:22.343Z,14.10
2018-08-18T01:42:50.711Z,14.10
2018-08-18T01:45:19.175Z,14.20
2018-08-18T01:47:47.571Z,14.20
2018-08-18T01:50:19.330Z,14.20
2018-08-18T01:52:47.708Z,14.20
2018-08-18T01:55:16.202Z,14.20
2018-08-18T01:57:44.874Z,14.20
2018-08-18T02:00:23.035Z,14.20
2018-08-18T02:02:51.420Z,14.20
2018-08-18T02:05:19.991Z,14.20
2018-08-18T02:07:48.363Z,14.20
2018-08-18T02:10:16.754Z,14.20
2018-08-18T02:12:56.463Z,14.10
2018-08-18T02:15:24.847Z,14.10
2018-08-18T02:17:53.238Z,14.10
2018-08-18T02:20:21.703Z,14.10
2018-08-18T02:22:50.074Z,14.10
2018-08-18T02:25:21.618Z,14.10
2018-08-18T02:27:49.984Z,14.10
2018-08-18T02:30:19.512Z,14.20
2018-08-18T02:32:47.930Z,14.20
2018-08-18T02:35:16.350Z,14.10
2018-08-18T02:37:44.715Z,14.10
2018-08-18T02:40:14.989Z,14.00
2018-08-18T02:42:43.383Z,13.80
2018-08-18T02:45:12.606Z,13.60
2018-08-18T02:47:41.059Z,13.60
2018-08-18T02:50:10.790Z,13.70
2018-08-18T02:52:39.190Z,13.70
2018-08-18T02:55:09.590Z,13.80
2018-08-18T02:57:44.614Z,13.80
2018-08-18T03:00:21.701Z,13.70
2018-08-18T03:02:50.176Z,13.70
2018-08-18T03:05:18.540Z,13.60
2018-08-18T03:07:50.985Z,13.60
2018-08-18T03:10:22.698Z,13.60
2018-08-18T03:12:51.686Z,13.60
2018-08-18T03:16:07.694Z,13.60
2018-08-18T03:18:46.059Z,13.70
2018-08-18T03:21:14.665Z,13.70
2018-08-18T03:23:54.523Z,13.60
2018-08-18T03:26:36.634Z,13.50
2018-08-18T03:29:05.076Z,13.50
2018-08-18T03:31:33.382Z,13.50
2018-08-18T03:34:01.775Z,13.50
2018-08-18T03:36:31.467Z,13.50
2018-08-18T03:39:00.118Z,13.50
2018-08-18T03:41:29.228Z,13.50
2018-08-18T03:43:58.055Z,13.50
2018-08-18T03:46:26.466Z,13.50
2018-08-18T03:48:55.159Z,13.50
2018-08-18T03:51:55.979Z,13.50
2018-08-18T03:54:24.378Z,13.40
2018-08-18T03:56:52.770Z,13.20
2018-08-18T03:59:21.190Z,13.20
2018-08-18T04:01:53.842Z,13.10
2018-08-18T04:04:23.296Z,13.10
2018-08-18T04:06:52.911Z,13.20
2018-08-18T04:09:30.098Z,13.10
2018-08-18T04:11:59.234Z,13.20
2018-08-18T04:14:30.690Z,13.10
2018-08-18T04:16:59.123Z,13.00
2018-08-18T04:19:27.591Z,13.10
2018-08-18T04:21:56.447Z,13.10
2018-08-18T04:24:33.755Z,13.20
2018-08-18T04:27:02.780Z,13.10
2018-08-18T04:29:31.183Z,13.10
2018-08-18T04:32:00.100Z,13.10
2018-08-18T04:34:28.495Z,13.10
2018-08-18T04:36:56.882Z,13.10
2018-08-18T04:39:25.273Z,13.10
2018-08-18T04:41:53.647Z,13.10
2018-08-18T04:44:22.090Z,13.10
2018-08-18T04:46:50.411Z,13.20
2018-08-18T04:49:18.795Z,13.30
2018-08-18T04:51:47.236Z,13.30
2018-08-18T04:54:15.635Z,13.30
2018-08-18T04:56:44.040Z,13.40
2018-08-18T04:59:12.487Z,13.40
2018-08-18T05:01:41.407Z,13.40
2018-08-18T05:04:10.914Z,13.40
2018-08-18T05:06:40.745Z,13.30
2018-08-18T05:09:10.295Z,13.40
2018-08-18T05:11:38.854Z,13.40
2018-08-18T05:14:07.406Z,13.40
2018-08-18T05:16:35.911Z,13.40
2018-08-18T05:19:04.332Z,13.50
2018-08-18T05:21:32.724Z,13.50
2018-08-18T05:24:32.351Z,13.50
2018-08-18T05:27:05.020Z,13.50
2018-08-18T05:29:33.988Z,13.50
2018-08-18T05:32:02.379Z,13.50
2018-08-18T05:34:30.771Z,13.50
2018-08-18T05:36:59.216Z,13.60
2018-08-18T05:39:27.582Z,13.60
2018-08-18T05:41:55.972Z,13.60
2018-08-18T05:44:24.331Z,13.70
2018-08-18T05:46:52.731Z,13.80
2018-08-18T05:49:21.136Z,13.80
2018-08-18T05:51:50.564Z,13.70
2018-08-18T05:54:24.255Z,13.80
2018-08-18T05:56:52.630Z,13.80
2018-08-18T05:59:21.003Z,14.00
2018-08-18T06:01:49.401Z,14.00
2018-08-18T06:04:19.008Z,14.20
2018-08-18T06:06:48.048Z,14.30
2018-08-18T06:09:17.659Z,14.50
2018-08-18T06:11:46.120Z,14.70
2018-08-18T06:14:14.979Z,14.80
2018-08-18T06:16:43.813Z,15.10
2018-08-18T06:19:12.212Z,15.30
2018-08-18T06:21:40.684Z,15.70
2018-08-18T06:24:09.078Z,16.10
2018-08-18T06:26:37.452Z,16.30
2018-08-18T06:29:05.995Z,16.50
2018-08-18T06:31:38.999Z,16.70
2018-08-18T06:34:07.374Z,16.80
2018-08-18T06:36:35.734Z,16.90
2018-08-18T06:39:05.279Z,17.10
2018-08-18T06:41:33.695Z,17.30
2018-08-18T06:44:02.007Z,17.50
2018-08-18T06:46:30.461Z,17.60
2018-08-18T06:48:58.828Z,17.80
2018-08-18T06:51:27.231Z,18.10
2018-08-18T06:53:55.595Z,18.40
2018-08-18T06:56:24.007Z,18.50
2018-08-18T06:58:52.432Z,18.50
2018-08-18T07:01:20.806Z,18.30
2018-08-18T07:03:49.200Z,18.50
2018-08-18T07:06:18.060Z,18.90
2018-08-18T07:08:52.557Z,19.20
2018-08-18T07:11:20.936Z,19.00
2018-08-18T07:13:49.805Z,18.90
2018-08-18T07:16:18.199Z,19.00
2018-08-18T07:18:46.554Z,19.10
2018-08-18T07:21:14.910Z,19.10
2018-08-18T07:23:46.251Z,19.50
2018-08-18T07:26:14.616Z,20.00
2018-08-18T07:28:43.066Z,20.20
2018-08-18T07:31:12.388Z,20.60
2018-08-18T07:33:40.818Z,20.70
2018-08-18T07:36:09.188Z,20.50
2018-08-18T07:38:37.572Z,20.80
2018-08-18T07:41:05.971Z,20.80
2018-08-18T07:43:35.670Z,20.70
2018-08-18T07:46:05.715Z,20.80
2018-08-18T07:48:34.140Z,21.20
2018-08-18T07:51:02.647Z,21.50
2018-08-18T07:53:31.133Z,21.80
2018-08-18T07:55:59.463Z,21.90
2018-08-18T07:58:27.867Z,21.70
2018-08-18T08:00:56.906Z,21.70
2018-08-18T08:03:25.353Z,21.40
2018-08-18T08:05:53.728Z,21.40
2018-08-18T08:08:22.174Z,21.60
2018-08-18T08:10:50.640Z,21.50
2018-08-18T08:13:19.023Z,21.40
2018-08-18T08:15:47.391Z,21.40
2018-08-18T08:18:16.233Z,21.50
2018-08-18T08:20:44.535Z,21.80
2018-08-18T08:23:13.015Z,22.10
2018-08-18T08:25:41.398Z,22.60
2018-08-18T08:28:09.768Z,22.40
2018-08-18T08:30:38.166Z,22.40
2018-08-18T08:33:06.634Z,22.60
2018-08-18T08:35:37.423Z,22.40
2018-08-18T08:38:05.878Z,22.70
2018-08-18T08:40:34.419Z,23.10
2018-08-18T08:43:03.072Z,23.00
2018-08-18T08:45:31.602Z,23.40
2018-08-18T08:48:00.047Z,23.30
2018-08-18T08:50:28.419Z,22.90
2018-08-18T08:52:57.620Z,22.90
2018-08-18T08:55:27.315Z,23.40
2018-08-18T08:57:55.719Z,23.30
2018-08-18T09:00:24.123Z,23.10
2018-08-18T09:02:52.468Z,23.50
2018-08-18T09:05:21.143Z,23.90
2018-08-18T09:07:49.537Z,24.10
2018-08-18T09:10:18.322Z,23.90
2018-08-18T09:12:46.651Z,24.20
2018-08-18T09:15:16.294Z,24.40
2018-08-18T09:17:44.679Z,24.20
2018-08-18T09:20:17.606Z,23.80
2018-08-18T09:22:54.539Z,23.90
2018-08-18T09:25:22.910Z,24.20
2018-08-18T09:28:02.123Z,24.60
2018-08-18T09:30:31.856Z,24.70
2018-08-18T09:33:02.777Z,24.90
2018-08-18T09:35:40.643Z,25.10
2018-08-18T09:38:09.006Z,25.40
2018-08-18T09:40:37.359Z,25.60
2018-08-18T09:43:09.936Z,25.20
2018-08-18T09:45:38.315Z,25.10
2018-08-18T09:48:06.964Z,25.10
2018-08-18T09:50:35.327Z,25.10
2018-08-18T09:53:03.723Z,25.30
2018-08-18T09:55:32.086Z,25.40
2018-08-18T09:58:00.458Z,25.50
2018-08-18T10:00:45.376Z,25.00
2018-08-18T10:03:13.718Z,25.00
2018-08-18T10:05:42.114Z,25.20
2018-08-18T10:08:10.517Z,25.40
2018-08-18T10:10:38.905Z,25.40
2018-08-18T10:13:07.271Z,25.40
2018-08-18T10:15:35.945Z,25.20
2018-08-18T10:18:04.327Z,25.20
2018-08-18T10:20:37.807Z,25.20
2018-08-18T10:23:06.191Z,25.20
2018-08-18T10:25:34.552Z,25.30
2018-08-18T10:28:02.891Z,25.20
2018-08-18T10:30:31.243Z,25.00
2018-08-18T10:33:06.087Z,24.90
2018-08-18T10:35:34.459Z,25.10
2018-08-18T10:38:05.151Z,25.30
2018-08-18T10:40:33.547Z,25.40
2018-08-18T10:43:01.902Z,25.20
2018-08-18T10:45:30.274Z,25.30
2018-08-18T10:47:58.599Z,25.10
2018-08-18T10:57:52.428Z,25.30
2018-08-18T11:00:22.827Z,24.90
2018-08-18T11:02:54.287Z,24.90
2018-08-18T11:05:23.531Z,24.90
2018-08-18T11:07:58.210Z,24.90
2018-08-18T11:10:28.431Z,24.70
2018-08-18T11:12:56.854Z,24.70
2018-08-18T11:15:25.360Z,24.90
2018-08-18T11:17:54.051Z,24.80
2018-08-18T11:20:23.632Z,24.90
2018-08-18T11:23:14.543Z,25.00
2018-08-18T11:25:45.150Z,25.30
2018-08-18T11:28:14.210Z,25.50
2018-08-18T11:30:42.682Z,25.40
2018-08-18T11:33:11.768Z,25.40
2018-08-18T11:35:40.114Z,25.40
2018-08-18T11:38:15.494Z,25.20
2018-08-18T11:40:44.087Z,25.40
2018-08-18T11:43:14.054Z,25.30
2018-08-18T11:45:43.355Z,25.30
2018-08-18T11:48:13.832Z,25.10
2018-08-18T11:50:42.628Z,25.10
2018-08-18T11:53:11.068Z,25.40
2018-08-18T11:55:39.634Z,25.60
2018-08-18T11:58:13.383Z,25.80
2018-08-18T12:00:46.236Z,25.50
2018-08-18T12:03:15.910Z,25.60
2018-08-18T12:05:47.301Z,25.80
2018-08-18T12:08:17.285Z,25.70
2018-08-18T12:10:46.145Z,25.70
2018-08-18T12:13:14.531Z,25.60
2018-08-18T12:16:15.519Z,25.40
2018-08-18T12:18:45.071Z,25.40
2018-08-18T12:21:13.867Z,25.60
2018-08-18T12:23:43.674Z,25.60
2018-08-18T12:26:16.376Z,25.70
2018-08-18T12:28:52.779Z,25.80
2018-08-18T12:31:23.493Z,25.80
2018-08-18T12:33:52.381Z,26.10
2018-08-18T12:36:20.946Z,26.00
2018-08-18T12:38:51.259Z,25.90
2018-08-18T12:41:19.632Z,25.90
2018-08-18T12:43:50.931Z,26.00
2018-08-18T12:46:20.547Z,25.90
2018-08-18T12:48:50.410Z,25.50
2018-08-18T12:51:19.615Z,25.60
2018-08-18T12:53:49.299Z,25.80
2018-08-18T12:56:19.690Z,25.90
2018-08-18T12:58:48.095Z,25.90
2018-08-18T13:01:36.259Z,26.10
2018-08-18T13:04:06.607Z,26.20
2018-08-18T13:06:39.175Z,26.40
2018-08-18T13:09:09.491Z,26.50
2018-08-18T13:11:37.951Z,26.50
2018-08-18T13:14:06.615Z,26.40
2018-08-18T13:16:36.127Z,26.50
2018-08-18T13:19:04.851Z,26.30
2018-08-18T13:21:33.188Z,25.80
2018-08-18T13:24:02.539Z,25.80
2018-08-18T13:26:31.256Z,25.90
2018-08-18T13:28:59.562Z,26.00
2018-08-18T13:31:32.540Z,26.00
2018-08-18T13:34:00.936Z,26.00
2018-08-18T13:36:29.692Z,26.00
2018-08-18T13:38:58.048Z,25.90
2018-08-18T13:41:26.402Z,25.80
2018-08-18T13:43:54.750Z,25.80
2018-08-18T13:46:34.560Z,25.80
2018-08-18T13:49:03.251Z,25.80
2018-08-18T13:51:32.431Z,25.90
2018-08-18T13:54:02.743Z,25.80
2018-08-18T13:56:31.608Z,25.90
2018-08-18T13:59:00.036Z,25.90
2018-08-18T14:01:40.092Z,25.80
2018-08-18T14:04:19.684Z,25.80
2018-08-18T14:06:54.349Z,25.60
2018-08-18T14:09:22.743Z,25.50
2018-08-18T14:11:54.723Z,25.70
2018-08-18T14:14:23.083Z,25.80
2018-08-18T14:16:51.477Z,25.70
2018-08-18T14:19:21.302Z,25.80
2018-08-18T14:21:53.878Z,25.70
2018-08-18T14:24:26.623Z,25.80
2018-08-18T14:27:01.308Z,25.90
2018-08-18T14:29:31.284Z,26.00
2018-08-18T14:32:00.259Z,26.00
2018-08-18T14:34:28.647Z,26.00
2018-08-18T14:37:01.160Z,26.10
2018-08-18T14:39:37.114Z,26.20
2018-08-18T14:42:05.819Z,26.20
2018-08-18T14:44:34.263Z,26.10
2018-08-18T14:47:02.739Z,26.10
2018-08-18T14:49:31.397Z,26.10
2018-08-18T14:51:59.795Z,26.10
2018-08-18T14:54:31.185Z,26.20
2018-08-18T14:57:01.031Z,26.20
2018-08-18T14:59:37.513Z,26.10
2018-08-18T15:02:07.379Z,26.10
2018-08-18T15:04:36.266Z,26.20
2018-08-18T15:07:04.699Z,26.20
2018-08-18T15:09:42.503Z,26.10
2018-08-18T15:12:10.880Z,26.20
2018-08-18T15:14:39.236Z,25.90
2018-08-18T15:17:07.635Z,26.00
2018-08-18T15:19:35.975Z,26.00
2018-08-18T15:22:06.911Z,26.00
2018-08-18T15:24:35.255Z,26.00
2018-08-18T15:27:03.650Z,25.90
2018-08-18T15:29:32.040Z,25.90
2018-08-18T15:32:00.449Z,25.90
2018-08-18T15:34:28.894Z,25.90
2018-08-18T15:36:57.254Z,25.90
2018-08-18T15:39:26.944Z,25.80
2018-08-18T15:41:57.408Z,25.90
2018-08-18T15:44:25.772Z,25.90
2018-08-18T15:46:54.168Z,25.80
2018-08-18T15:49:22.554Z,25.80
2018-08-18T15:51:50.962Z,25.60
2018-08-18T15:54:19.473Z,25.40
2018-08-18T15:56:47.822Z,25.30
2018-08-18T15:59:16.179Z,25.50
2018-08-18T16:01:44.543Z,25.50
2018-08-18T16:04:13.920Z,25.60
2018-08-18T16:06:42.294Z,25.60
2018-08-18T16:09:10.651Z,25.50
2018-08-18T16:11:39.051Z,25.50
2018-08-18T16:14:07.408Z,25.40
2018-08-18T16:16:51.579Z,25.50
2018-08-18T16:19:19.935Z,25.50
2018-08-18T16:21:48.327Z,25.60
2018-08-18T16:24:56.515Z,25.50
2018-08-18T16:27:24.937Z,25.40
2018-08-18T16:29:53.267Z,25.40
2018-08-18T16:32:26.372Z,25.50
2018-08-18T16:35:02.753Z,25.60
2018-08-18T16:37:31.987Z,25.50
2018-08-18T16:40:00.367Z,25.20
2018-08-18T16:42:29.179Z,25.20
2018-08-18T16:44:57.596Z,25.20
2018-08-18T16:47:25.959Z,25.20
2018-08-18T16:49:54.328Z,25.10
2018-08-18T16:52:22.685Z,25.00
2018-08-18T16:54:51.060Z,24.80
2018-08-18T16:57:19.441Z,24.70
2018-08-18T16:59:47.831Z,24.70
2018-08-18T17:02:31.148Z,24.70
2018-08-18T17:04:59.511Z,24.70
2018-08-18T17:07:28.175Z,24.60
2018-08-18T17:09:56.595Z,24.50
2018-08-18T17:12:28.951Z,24.50
2018-08-18T17:14:57.336Z,24.50
2018-08-18T17:17:26.075Z,24.40
2018-08-18T17:19:54.455Z,24.40
2018-08-18T17:22:22.827Z,24.50
2018-08-18T17:24:51.234Z,24.60
2018-08-18T17:27:19.589Z,24.60
2018-08-18T17:29:49.766Z,24.60
2018-08-18T17:32:18.123Z,24.50
2018-08-18T17:34:46.487Z,24.40
2018-08-18T17:37:14.835Z,24.50
2018-08-18T17:39:43.230Z,24.50
2018-08-18T17:42:11.603Z,24.50
2018-08-18T17:44:39.963Z,24.50
2018-08-18T17:47:09.595Z,24.50
2018-08-18T17:49:57.734Z,24.40
2018-08-18T17:52:27.310Z,24.30
2018-08-18T17:55:10.783Z,24.10
2018-08-18T17:57:39.575Z,24.20
2018-08-18T18:00:29.598Z,24.10
2018-08-18T18:03:00.569Z,24.10
2018-08-18T18:05:31.826Z,24.10
2018-08-18T18:08:02.174Z,24.10
2018-08-18T18:10:31.868Z,24.00
2018-08-18T18:13:00.427Z,24.10
2018-08-18T18:15:32.671Z,24.00
2018-08-18T18:18:01.102Z,24.00
2018-08-18T18:20:31.047Z,23.90
2018-08-18T18:22:59.459Z,23.80
2018-08-18T18:25:27.895Z,23.70
2018-08-18T18:27:56.338Z,23.80
2018-08-18T18:30:27.574Z,23.70
2018-08-18T18:32:56.463Z,23.70
2018-08-18T18:35:25.295Z,23.70
2018-08-18T18:37:56.362Z,23.70
2018-08-18T18:40:24.744Z,23.60
2018-08-18T18:42:53.099Z,23.50
2018-08-18T18:45:23.488Z,23.30
2018-08-18T18:47:51.871Z,23.30
2018-08-18T18:50:20.436Z,23.20
2018-08-18T18:52:48.871Z,23.10
2018-08-18T18:55:17.807Z,22.90
2018-08-18T18:58:01.715Z,22.90
2018-08-18T19:00:31.575Z,22.90
2018-08-18T19:02:59.960Z,22.80
2018-08-18T19:05:29.707Z,22.70
2018-08-18T19:08:11.207Z,22.60
2018-08-18T19:10:39.835Z,22.50
2018-08-18T19:13:09.051Z,22.30
2018-08-18T19:15:37.410Z,22.20
2018-08-18T19:18:06.468Z,22.10
2018-08-18T19:20:34.875Z,22.00
2018-08-18T19:23:09.779Z,21.90
2018-08-18T19:25:39.431Z,21.80
2018-08-18T19:28:11.222Z,21.80
2018-08-18T19:30:39.624Z,21.70
2018-08-18T19:33:08.303Z,21.50
2018-08-18T19:35:40.418Z,21.60
2018-08-18T19:38:08.964Z,21.40
2018-08-18T19:40:38.626Z,21.20
2018-08-18T19:43:13.066Z,21.00
2018-08-18T19:45:41.544Z,21.00
2018-08-18T19:48:10.919Z,21.00
2018-08-18T19:50:48.471Z,21.00
2018-08-18T19:53:17.365Z,20.90
2018-08-18T19:55:45.742Z,20.80
2018-08-18T19:58:14.186Z,20.60
2018-08-18T20:00:42.541Z,20.50
2018-08-18T20:03:12.287Z,20.50
2018-08-18T20:05:40.639Z,20.40
2018-08-18T20:08:09.204Z,20.40
2018-08-18T20:10:44.041Z,20.30
2018-08-18T20:13:13.371Z,20.30
2018-08-18T20:15:44.283Z,20.30
2018-08-18T20:18:12.717Z,20.30
2018-08-18T20:20:41.103Z,20.20
2018-08-18T20:23:09.559Z,20.20
2018-08-18T20:25:37.931Z,20.10
2018-08-18T20:28:06.380Z,20.10
2018-08-18T20:30:34.763Z,20.10
2018-08-18T20:33:03.324Z,20.00
2018-08-18T20:35:31.687Z,20.00
2018-08-18T20:38:00.172Z,20.00
2018-08-18T20:40:28.676Z,20.00
2018-08-18T20:42:57.515Z,20.00
2018-08-18T20:45:31.600Z,20.00
2018-08-18T20:48:00.247Z,19.90
2018-08-18T20:50:29.176Z,19.90
2018-08-18T20:53:02.996Z,19.90
2018-08-18T20:55:31.575Z,19.90
2018-08-18T20:57:59.939Z,19.80
2018-08-18T21:00:28.297Z,19.90
2018-08-18T21:02:56.703Z,19.80
2018-08-18T21:05:25.045Z,19.90
2018-08-18T21:07:53.411Z,19.90
2018-08-18T21:10:21.746Z,19.80
2018-08-18T21:12:50.193Z,19.90
2018-08-18T21:15:18.579Z,19.80
2018-08-18T21:17:46.966Z,19.70
2018-08-18T21:20:17.129Z,19.60
2018-08-18T21:22:45.487Z,19.60
2018-08-18T21:25:14.607Z,19.60
2018-08-18T21:27:43.131Z,19.60
2018-08-18T21:30:14.292Z,19.50
2018-08-18T21:32:42.689Z,19.50
2018-08-18T21:35:11.055Z,19.50
2018-08-18T21:37:39.415Z,19.50
2018-08-18T21:40:08.800Z,19.50
2018-08-18T21:42:37.174Z,19.50
2018-08-18T21:45:08.855Z,19.40
2018-08-18T21:47:37.226Z,19.40
2018-08-18T21:50:05.999Z,19.30
2018-08-18T21:52:34.346Z,19.30
2018-08-18T21:55:02.712Z,19.30
2018-08-18T21:57:36.583Z,19.30
2018-08-18T22:00:05.473Z,19.30
2018-08-18T22:02:40.879Z,19.20
2018-08-18T22:05:11.871Z,19.20
2018-08-18T22:07:45.633Z,19.20
2018-08-18T22:10:14.003Z,19.20
2018-08-18T22:12:42.377Z,19.10
2018-08-18T22:15:17.685Z,19.10
2018-08-18T22:17:46.952Z,19.10
2018-08-18T22:20:16.101Z,19.10
2018-08-18T22:22:44.488Z,19.00
2018-08-18T22:25:13.111Z,19.00
2018-08-18T22:27:41.478Z,18.90
2018-08-18T22:30:12.064Z,18.80
2018-08-18T22:32:41.795Z,18.70
2018-08-18T22:35:11.239Z,18.70
2018-08-18T22:37:39.995Z,18.70
2018-08-18T22:40:09.366Z,18.70
2018-08-18T22:42:37.859Z,18.70
2018-08-18T22:45:17.683Z,18.60
2018-08-18T22:47:46.301Z,18.50
2018-08-18T22:50:15.484Z,18.50
2018-08-18T22:52:47.314Z,18.50
2018-08-18T22:55:15.875Z,18.50
2018-08-18T22:57:50.980Z,18.40
2018-08-18T23:00:19.375Z,18.30
2018-08-18T23:02:47.780Z,18.30
2018-08-18T23:05:17.755Z,18.30
2018-08-18T23:07:47.475Z,18.20
2018-08-18T23:10:15.886Z,18.30
2018-08-18T23:12:44.258Z,18.30
2018-08-18T23:15:12.615Z,18.30
2018-08-18T23:17:40.978Z,18.20
2018-08-18T23:20:09.379Z,18.10
2018-08-18T23:22:54.438Z,18.20
2018-08-18T23:25:23.979Z,18.10
2018-08-18T23:27:52.675Z,18.10
2018-08-18T23:30:37.023Z,18.10
2018-08-18T23:33:07.065Z,18.10
2018-08-18T23:35:35.634Z,18.10
2018-08-18T23:38:04.246Z,18.00
2018-08-18T23:40:32.663Z,18.00
2018-08-18T23:43:01.033Z,18.00
2018-08-18T23:45:37.621Z,17.90
2018-08-18T23:48:08.492Z,17.90
2018-08-18T23:50:37.835Z,17.80
2018-08-18T23:53:10.504Z,17.70
2018-08-18T23:55:48.542Z,17.80
2018-08-18T23:58:17.083Z,17.70
